Terminal Aerodrome Forecast
Issued by NWS

Home | Current Version | Previous Version | Text Only | Print | Product List | Glossary On
Versions: 1 2 3 4 5 6 7 8 9 10 11 12 13 14 15 16
581
FTUS42 KTAE 061120
TAFVLD
TAF
KVLD 061120Z 0612/0712 03006KT P6SM BKN030 OVC040
     FM062000 01006KT 6SM -RA SCT020 OVC035
     FM070300 35006KT P6SM BKN040=

USA.gov is the U.S. government's official web portal to all federal, state and local government web resources and services.